Decoded Metar for KSAC (SACRAMENTO in CA, USA) (IATA:SAC) | Meteo·Mobile Aviation Weather
aviador You're here:

KSAC Decoded Metar

SACRAMENTO in CA, USA
Report Time2018-11-18 23:53:00
UTC Time2018-11-19 00:31:32
Flight Rules ifr IFR
Wind340° at 04 kt
W.Decomp.*RWY 34: 3.9 kt HW 1 kt LCW
RWY 30: 3.6 kt HW 1.8 kt RCW
RWY 02: 2.4 kt HW 3.2 kt LCW
W.Rank340° ranks 11
Current wind is below 340° avg. (8.1)
Visibility2414 m
Phenomena:Smoke
Clouds:N/A
Expected CloudBase > 7,200 ft AGL from Temp-Dew spread
CeilingNone
Temp18°C (ISA +3)
Dew Point00°C (30% RH)
AAT14.6°C
QNH1017 hPa
Density Alt351 ft
Elevation36 ft
Report Wrong Elevation
Raw Report
KSAC 182353Z 34004KT 1 1/2SM FU CLR 18/00 A3003 RMK AO2 SLP168
T01780000 10189 20100 56008=

Extra information for KSAC:More info

Metar Taf Metar & Taf Last 4 Metars F.Rules Stats Wind Profile Meteogram Temp Stats Airport Information Weather charts Add Link Nearby VenuesMetar ALERT Operation Metar Decoded Social comments

AIRNAV info for KSAC